Latest Weather Observations for Ernabella/Pukatja

IDD60801

Issued at 3:01 pm CST Thursday 18 July 2024 (issued every 10 minutes, with the page automatically refreshed every 10 minutes)

About weather observations | Map of weather stations | Latest weather observations for NT | Other Formats
Station Details ID: 016097 Name: PUKATJA Lat: -26.26 Lon: 132.18 Height: 703.2 m
Data from the previous 72 hours. | See also: Recent months at Ernabella/Pukatja
Date/Time
CST
Temp
°C
App
Temp
°C
Dew
Point
°C
Rel
Hum
%
Delta-T
°C
Wind Press
QNH
hPa
Press
MSL
hPa
Rain since
9am
mm
Dir  Spd
km/h
Gust
km/h
Spd
kts
Gust
kts
18/03:00pm 16.8 11.1 -0.4 31 7.6 NNW 19 26 10 14 1020.9 1020.4 0.0
18/02:30pm 16.6 11.1 0.3 33 7.3 N 19 28 10 15 1021.1 1020.6 0.0
18/02:00pm 16.2 10.7 0.7 35 7.0 NNW 19 24 10 13 1021.9 1021.4 0.0
18/01:30pm 15.3 10.1 0.3 36 6.6 N 17 26 9 14 1022.1 1021.6 0.0
18/01:00pm 14.8 10.1 0.6 38 6.3 NNW 15 24 8 13 1023.1 1022.6 0.0
18/12:30pm 14.6 10.4 1.5 41 5.9 NNW 13 20 7 11 1024.1 1023.6 0.0
18/12:00pm 14.2 10.0 1.8 43 5.6 N 13 19 7 10 1024.4 1024.0 0.0
18/11:30am 12.9 9.1 1.9 47 4.9 N 11 20 6 11 1024.9 1024.4 0.0
18/11:00am 11.9 7.7 1.8 50 4.5 N 13 22 7 12 1025.6 1025.2 0.0
18/10:30am 11.2 6.6 1.7 52 4.2 NNE 15 20 8 11 1025.9 1025.5 0.0
18/10:00am 10.2 5.3 1.8 56 3.7 NNE 17 24 9 13 1025.7 1025.3 0.0
18/09:30am 9.2 4.3 1.9 60 3.2 NNE 17 22 9 12 1025.5 1025.1 0.0
18/09:00am 8.6 6.3 2.6 66 2.6 ENE 4 7 2 4 1025.4 1024.9 0.0
18/08:30am 5.6 3.2 2.1 78 1.5 ENE 4 6 2 3 1025.2 1024.7 0.0
18/08:00am 1.2 -1.9 -0.1 91 0.5 ENE 6 6 3 3 1024.8 1024.3 0.0
18/07:30am -0.5 -4.1 -2.1 89 0.5 ENE 7 7 4 4 1024.7 1024.2 0.0
18/07:00am 0.4 -1.6 -0.3 95 0.3 CALM 0 0 0 0 1024.6 1024.1 0.0
18/06:30am 0.1 -2.1 -1.2 91 0.5 CALM 0 0 0 0 1024.3 1023.9 0.0
18/06:00am -0.2 -2.4 -1.6 90 0.5 CALM 0 0 0 0 1024.2 1023.7 0.0
18/05:30am -0.4 -2.8 -2.9 83 0.9 CALM 0 0 0 0 1024.1 1023.6 0.0
18/05:00am 1.3 -0.9 -1.3 83 1.0 CALM 0 0 0 0 1024.6 1024.1 0.0
18/04:30am 3.1 1.2 0.5 83 1.0 CALM 0 0 0 0 1024.4 1024.0 0.0
18/04:00am 2.3 0.2 -1.1 78 1.3 CALM 0 0 0 0 1024.4 1024.0 0.0
18/03:30am 3.0 0.9 -0.8 76 1.4 CALM 0 0 0 0 1024.2 1023.7 0.0
18/03:00am 3.1 -0.1 -0.2 79 1.3 NNE 6 6 3 3 1024.3 1023.9 0.0
18/02:30am 3.3 0.0 -0.9 74 1.6 NNE 6 7 3 4 1024.6 1024.1 0.0
18/02:00am 3.2 -0.2 -0.6 76 1.5 NNE 7 9 4 5 1025.2 1024.7 0.0
18/01:30am 4.0 0.8 -0.2 74 1.6 NE 6 7 3 4 1025.1 1024.6 0.0
18/01:00am 5.5 1.9 0.3 69 2.1 E 9 11 5 6 1025.2 1024.7 0.0
18/12:30am 6.7 2.4 1.0 67 2.4 ESE 13 19 7 10 1025.4 1024.9 0.0
18/12:00am 6.7 2.1 -0.7 59 2.9 ESE 13 19 7 10 1025.3 1024.8 0.0
 
Date/Time
CST
Temp
°C
App
Temp
°C
Dew
Point
°C
Rel
Hum
%
Delta-T
°C
Wind Press
QNH
hPa
Press
MSL
hPa
Rain since
9am
mm
Dir  Spd
km/h
Gust
km/h
Spd
kts
Gust
kts
17/11:30pm 8.5 3.4 0.7 58 3.3 SE 17 20 9 11 1025.6 1025.2 0.0
17/11:00pm 8.7 3.9 0.2 55 3.5 SE 15 20 8 11 1025.8 1025.4 0.0
17/10:30pm 9.0 4.6 0.2 54 3.7 SE 13 17 7 9 1025.9 1025.5 0.0
17/10:00pm 9.0 4.6 0.2 54 3.7 SE 13 17 7 9 1025.9 1025.5 0.0
17/09:30pm 6.5 2.6 -1.2 58 3.0 SSE 9 11 5 6 1026.1 1025.6 0.0
17/09:00pm 9.4 5.7 -0.2 51 4.0 SE 9 11 5 6 1025.8 1025.4 0.0
17/08:30pm 9.0 5.6 -0.3 52 3.8 SE 7 13 4 7 1025.4 1024.9 0.0
17/08:00pm 9.7 5.6 -0.2 50 4.1 SE 11 13 6 7 1025.3 1024.8 0.0
17/07:30pm 10.3 6.6 -0.2 48 4.4 S 9 13 5 7 1025.2 1024.7 0.0
17/07:00pm 11.1 7.0 -0.1 46 4.7 S 11 20 6 11 1024.7 1024.2 0.0
17/06:30pm 11.8 7.0 0.0 44 5.0 SSW 15 19 8 10 1024.4 1024.0 0.0
17/06:00pm 12.4 7.6 -0.1 42 5.3 SSW 15 20 8 11 1024.3 1023.9 0.0
17/05:30pm 13.0 7.8 0.1 41 5.6 SSE 17 24 9 13 1024.1 1023.6 0.0
17/05:00pm 13.7 8.8 -0.3 38 6.0 S 15 26 8 14 1024.0 1023.5 0.0
17/04:30pm 14.3 9.1 -0.2 37 6.3 SSW 17 30 9 16 1023.9 1023.4 0.0
17/04:00pm 14.2 8.6 0.1 38 6.2 SW 19 30 10 16 1023.9 1023.4 0.0
17/03:30pm 14.1 8.4 0.4 39 6.0 SW 20 30 11 16 1024.1 1023.6 0.0
17/03:00pm 13.6 8.5 0.6 41 5.7 S 17 28 9 15 1023.7 1023.2 0.0
17/02:30pm 13.5 8.0 0.5 41 5.7 SSE 19 24 10 13 1023.8 1023.3 0.0
17/02:00pm 12.8 8.5 1.2 45 5.1 SSE 13 19 7 10 1024.0 1023.5 0.0
17/01:30pm 12.8 8.6 1.5 46 5.0 SSE 13 20 7 11 1024.6 1024.1 0.0
17/01:00pm 12.5 7.9 1.5 47 4.9 SSE 15 28 8 15 1025.0 1024.5 0.0
17/12:30pm 11.9 7.6 1.3 48 4.6 SSW 13 22 7 12 1026.1 1025.6 0.0
17/12:00pm 11.1 5.5 1.1 50 4.3 SSW 20 28 11 15 1026.5 1026.0 0.0
17/11:30am 11.7 6.8 2.2 52 4.2 SSE 17 22 9 12 1027.1 1026.7 0.0
17/11:00am 11.0 5.7 2.1 54 4.0 SSE 19 28 10 15 1027.4 1027.0 0.0
17/10:30am 10.5 6.5 2.8 59 3.4 SSE 13 22 7 12 1027.0 1026.6 0.0
17/10:00am 9.6 6.0 2.7 62 3.1 SE 11 15 6 8 1026.9 1026.5 0.0
17/09:30am 8.6 5.7 4.6 76 1.8 SE 9 15 5 8 1026.5 1026.0 0.0
17/09:00am 7.7 5.3 4.5 80 1.5 WSW 6 11 3 6 1026.3 1025.8 0.0
17/08:30am 6.1 4.7 3.4 83 1.2 CALM 0 0 0 0 1026.3 1025.8 0.0
17/08:00am 5.0 2.3 2.9 86 0.9 W 6 9 3 5 1025.8 1025.4 0.0
17/07:30am 4.9 1.2 2.6 85 1.0 WSW 11 17 6 9 1025.7 1025.3 0.0
17/07:00am 6.1 2.6 3.6 84 1.1 SW 11 26 6 14 1025.7 1025.3 0.0
17/06:30am 6.4 1.8 3.6 82 1.2 S 17 24 9 13 1025.6 1025.2 0.0
17/06:00am 6.9 1.6 3.2 77 1.6 SSW 20 28 11 15 1025.4 1024.9 0.0
17/05:30am 7.1 1.8 2.0 70 2.2 S 19 28 10 15 1024.9 1024.4 0.0
17/05:00am 7.7 2.6 0.7 61 2.9 S 17 22 9 12 1024.7 1024.2 0.0
17/04:30am 5.9 2.3 0.9 70 2.0 SSW 9 20 5 11 1024.7 1024.2 0.0
17/04:00am 4.9 1.6 -0.1 70 2.0 W 7 13 4 7 1025.0 1024.5 0.0
17/03:30am 4.8 1.5 0.0 71 1.9 SW 7 13 4 7 1024.8 1024.3 0.0
17/03:00am 5.0 1.7 0.0 70 2.0 WSW 7 11 4 6 1024.9 1024.4 0.0
17/02:30am 5.5 1.8 0.1 68 2.2 WSW 9 13 5 7 1025.0 1024.5 0.0
17/02:00am 7.1 3.1 0.5 63 2.7 SSW 11 15 6 8 1025.0 1024.5 0.0
17/01:30am 7.4 3.8 0.4 61 2.9 S 9 13 5 7 1025.1 1024.6 0.0
17/01:00am 7.7 4.0 -0.3 57 3.3 S 9 13 5 7 1025.1 1024.6 0.0
17/12:30am 9.0 4.5 -0.3 52 3.8 S 13 20 7 11 1025.3 1024.8 0.0
17/12:00am 9.1 4.2 -0.2 52 3.8 S 15 20 8 11 1025.5 1025.1 0.0
 
Date/Time
CST
Temp
°C
App
Temp
°C
Dew
Point
°C
Rel
Hum
%
Delta-T
°C
Wind Press
QNH
hPa
Press
MSL
hPa
Rain since
9am
mm
Dir  Spd
km/h
Gust
km/h
Spd
kts
Gust
kts
16/11:30pm 9.0 3.9 0.7 56 3.5 S 17 22 9 12 1025.6 1025.2 0.0
16/11:00pm 9.4 4.8 1.3 57 3.5 S 15 22 8 12 1025.7 1025.3 0.0
16/10:30pm 9.5 4.5 1.2 56 3.5 S 17 28 9 15 1025.5 1025.1 0.0
16/10:00pm 10.2 4.9 1.8 56 3.7 SSE 19 24 10 13 1025.6 1025.2 0.0
16/09:30pm 10.5 5.2 1.6 54 3.9 S 19 28 10 15 1025.6 1025.2 0.0
16/09:00pm 10.7 6.2 2.0 55 3.8 S 15 22 8 12 1025.6 1025.2 0.0
16/08:30pm 10.7 5.8 2.0 55 3.8 S 17 20 9 11 1025.4 1024.9 0.0
16/08:00pm 10.7 5.8 1.8 54 3.9 S 17 20 9 11 1025.3 1024.8 0.0
16/07:30pm 10.5 6.0 2.1 56 3.7 SSE 15 20 8 11 1025.0 1024.5 0.0
16/07:00pm 10.7 5.3 2.5 57 3.7 SSE 20 28 11 15 1024.7 1024.2 0.0
16/06:30pm 11.5 5.4 0.6 47 4.7 S 22 30 12 16 1024.3 1023.9 0.0
16/06:00pm 11.9 6.3 1.0 47 4.7 S 20 26 11 14 1024.0 1023.5 0.0
16/05:30pm 12.4 6.8 1.4 47 4.9 S 20 30 11 16 1023.6 1023.1 0.0
16/05:00pm 13.4 7.9 0.4 41 5.7 SSW 19 33 10 18 1023.2 1022.7 0.0
16/04:30pm 13.0 6.9 0.4 42 5.5 SSE 22 30 12 16 1023.0 1022.4 0.0
16/04:00pm 13.4 7.3 0.4 41 5.7 S 22 35 12 19 1022.8 1022.3 0.0
16/03:30pm 12.6 6.9 0.4 43 5.3 S 20 26 11 14 1022.8 1022.3 0.0
16/03:00pm 13.0 7.4 1.0 44 5.3 S 20 30 11 16 1023.2 1022.7 0.0
16/02:30pm 12.2 6.5 0.6 45 5.0 S 20 28 11 15 1023.5 1023.0 0.0
16/02:00pm 12.3 8.5 1.6 48 4.8 SSW 11 20 6 11 1023.6 1023.1 0.0
16/01:30pm 12.8 7.9 2.1 48 4.8 SSW 17 28 9 15 1024.0 1023.5 0.0
16/01:00pm 11.9 7.1 2.6 53 4.2 S 17 26 9 14 1024.3 1023.9 0.0
16/12:30pm 11.6 7.0 3.6 58 3.7 S 17 26 9 14 1025.1 1024.6 0.0
16/12:00pm 11.4 6.5 4.2 61 3.3 S 19 30 10 16 1025.4 1024.9 0.0
16/11:30am 10.7 5.6 4.2 64 3.0 S 20 28 11 15 1025.7 1025.3 0.0
16/11:00am 9.9 5.5 4.9 71 2.3 SSE 17 28 9 15 1026.2 1025.7 0.0
16/10:38am 9.1 6.1 4.3 72 2.2 SW 9 13 5 7 1026.4 1025.9 0.0
16/10:30am 8.7 5.4 4.3 74 2.0 SW 11 15 6 8 1026.4 1025.9 0.0
16/10:00am 8.2 4.4 3.9 74 1.9 WSW 13 19 7 10 1026.2 1025.7 0.0
16/09:30am 7.6 4.1 3.6 76 1.8 WSW 11 15 6 8 1025.5 1025.1 0.0
16/09:08am 7.0 3.1 3.3 77 1.6 WSW 13 15 7 8 1025.3 1024.8 0.0
16/09:00am 6.9 3.0 3.2 77 1.6 WSW 13 15 7 8 1025.2 1024.7 0.0
16/08:30am 5.9 2.6 2.4 78 1.5 WSW 9 13 5 7 1024.8 1024.3 0.0
16/08:00am 3.9 0.8 1.4 84 1.0 W 7 11 4 6 1024.6 1024.1 0.0
16/07:30am 3.3 0.1 0.5 82 1.1 WSW 7 9 4 5 1024.0 1023.5 0.0
16/07:00am 3.8 0.6 1.0 82 1.1 WSW 7 11 4 6 1023.6 1023.1 0.0
16/06:30am 3.9 1.3 0.9 81 1.2 W 4 7 2 4 1023.2 1022.7 0.0
16/06:00am 3.5 0.4 0.4 80 1.2 WSW 6 11 3 6 1023.2 1022.7 0.0
16/05:30am 4.6 1.0 0.9 77 1.5 WSW 9 11 5 6 1023.0 1022.4 0.0
16/05:00am 5.3 1.4 1.1 74 1.7 WSW 11 13 6 7 1022.7 1022.2 0.0
16/04:30am 5.2 1.6 0.6 72 1.9 WSW 9 11 5 6 1022.8 1022.3 0.0
16/04:00am 6.1 2.5 0.9 69 2.1 WSW 9 13 5 7 1022.8 1022.3 0.0
16/03:30am 8.4 4.2 1.6 62 2.9 S 13 20 7 11 1022.6 1022.1 0.0
16/03:00am 7.1 3.6 1.4 67 2.4 SSW 9 15 5 8 1022.6 1022.1 0.0
16/02:30am 5.3 3.4 0.5 71 1.9 CALM 0 0 0 0 1022.6 1022.1 0.0
16/02:00am 7.3 4.4 1.2 65 2.6 SE 6 11 3 6 1022.7 1022.2 0.0
16/01:30am 7.4 4.4 0.8 63 2.7 ESE 6 7 3 4 1022.8 1022.3 0.0
16/01:00am 8.5 5.0 1.2 60 3.1 SSE 9 13 5 7 1022.7 1022.2 0.0
16/12:30am 9.2 5.0 1.4 58 3.3 SSE 13 17 7 9 1022.6 1022.1 0.0
16/12:00am 9.5 5.3 1.7 58 3.4 SSE 13 20 7 11 1022.6 1022.1 0.0
 
Date/Time
CST
Temp
°C
App
Temp
°C
Dew
Point
°C
Rel
Hum
%
Delta-T
°C
Wind Press
QNH
hPa
Press
MSL
hPa
Rain since
9am
mm
Dir  Spd
km/h
Gust
km/h
Spd
kts
Gust
kts
15/11:30pm 10.1 4.8 1.7 56 3.7 SSE 19 28 10 15 1022.7 1022.2 0.0
15/11:00pm 10.2 4.9 1.6 55 3.8 SSE 19 26 10 14 1022.7 1022.2 0.0
15/10:30pm 10.8 4.9 1.6 53 4.0 SSE 22 30 12 16 1022.4 1021.9 0.0
15/10:00pm 11.1 5.2 1.9 53 4.1 SSE 22 30 12 16 1022.2 1021.7 0.0
15/09:30pm 11.4 6.2 2.4 54 4.0 SSE 19 24 10 13 1022.0 1021.5 0.0
15/09:00pm 12.1 6.7 2.3 51 4.4 SSE 20 30 11 16 1021.9 1021.4 0.0
15/08:30pm 12.4 6.6 2.3 50 4.5 SSE 22 32 12 17 1021.7 1021.1 0.0
15/08:00pm 12.6 7.2 1.0 45 5.1 S 19 28 10 15 1021.3 1020.8 0.0
15/07:30pm 13.3 7.9 1.0 43 5.4 S 19 28 10 15 1021.0 1020.5 0.0
15/07:00pm 13.5 8.0 0.9 42 5.6 S 19 26 10 14 1020.7 1020.2 0.0
15/06:30pm 13.8 8.3 0.8 41 5.7 S 19 24 10 13 1020.3 1019.7 0.0
15/06:00pm 14.6 8.5 0.1 37 6.4 S 22 28 12 15 1020.1 1019.5 0.0
15/05:30pm 15.3 10.3 -0.9 33 7.0 SSW 15 22 8 12 1019.7 1019.2 0.0
15/05:00pm 15.6 9.9 -1.0 32 7.2 SSW 19 28 10 15 1019.5 1019.0 0.0
15/04:30pm 15.3 8.7 -0.4 34 6.9 SSW 24 35 13 19 1019.2 1018.6 0.0
15/04:00pm 16.3 10.5 -0.4 32 7.4 SW 20 30 11 16 1018.9 1018.3 0.0
15/03:30pm 16.5 10.3 -0.2 32 7.4 SW 22 30 12 16 1018.9 1018.3 0.0

Other formats

Comma delimited format used in spreadsheet applications
http://www.bom.gov.au/fwo/IDD60801/IDD60801.94474.axf

JavaScript Object Notation format (JSON) in row-major order
http://www.bom.gov.au/fwo/IDD60801/IDD60801.94474.json

Data quality

Most of these data are generated automatically and are frequently updated. Quality checks on data are not normally performed. It is possible for incorrect values to appear. Refer to information at About Latest Weather Observations and please check the disclaimer before using these data.